Time;durP1;ratioP1;P1;durP2;ratioP2;P2;SDS_P1;SDS_P2;PMS_P1;PMS_P2;Temp;Humidity;BMP_temperature;BMP_pressure;BME280_temperature;BME280_humidity;BME280_pressure;Samples;Min_cycle;Max_cycle;Signal;HPM_P1;HPM_P2
2021/04/15 00:01:16;;;;;;;25.85;13.70;;;;;;;1.04;71.96;99037.30;115327;1206;102210;-75
2021/04/15 00:03:46;;;;;;;26.60;14.75;;;;;;;1.06;71.90;99036.39;114489;1206;103057;-73
2021/04/15 00:06:23;;;;;;;25.55;13.75;;;;;;;1.05;72.12;99032.90;114546;1206;103069;-73
2021/04/15 00:08:53;;;;;;;25.20;13.50;;;;;;;1.07;72.18;99031.09;114498;1206;103171;-75
2021/04/15 00:11:25;;;;;;;26.00;13.80;;;;;;;1.04;71.99;99024.20;114526;1206;103181;-75
2021/04/15 00:13:56;;;;;;;26.60;13.80;;;;;;;1.03;72.07;99034.71;114866;1206;103092;-74
2021/04/15 00:16:24;;;;;;;24.45;11.80;;;;;;;1.04;71.94;99023.33;115828;1205;101053;-74
2021/04/15 00:18:52;;;;;;;24.90;12.95;;;;;;;1.03;72.18;99026.86;115226;1206;103214;-73
2021/04/15 00:21:20;;;;;;;26.00;13.70;;;;;;;1.07;72.00;99025.00;114995;1206;103025;-73
2021/04/15 00:23:48;;;;;;;26.05;13.20;;;;;;;1.08;72.20;99030.17;115835;1205;101130;-73
2021/04/15 00:26:17;;;;;;;27.15;15.10;;;;;;;1.13;71.52;99022.18;115873;1205;101504;-74
2021/04/15 00:28:44;;;;;;;23.60;12.50;;;;;;;1.15;72.47;99018.58;114712;1206;103695;-73
2021/04/15 00:31:13;;;;;;;24.90;13.85;;;;;;;1.16;71.94;99012.43;114558;1206;103095;-75
2021/04/15 00:33:41;;;;;;;25.05;13.40;;;;;;;1.18;71.93;99015.02;114510;1206;103139;-74
2021/04/15 00:36:13;;;;;;;24.60;13.80;;;;;;;1.19;72.02;99016.73;114530;1205;103152;-75
2021/04/15 00:38:43;;;;;;;24.75;12.60;;;;;;;1.17;71.86;99019.38;114522;1205;103258;-74
2021/04/15 00:41:13;;;;;;;23.80;13.13;;;;;;;1.13;71.94;99014.31;114508;1206;103085;-76
2021/04/15 00:43:45;;;;;;;23.05;12.50;;;;;;;1.12;72.03;99020.47;114524;1206;103143;-76
2021/04/15 00:46:44;;;;;;;26.07;14.43;;;;;;;1.13;71.91;99016.94;114534;1206;103155;-76
2021/04/15 00:49:18;;;;;;;24.00;12.30;;;;;;;1.11;72.24;99016.13;114563;1206;103060;-76
2021/04/15 00:51:53;;;;;;;23.60;11.60;;;;;;;1.10;72.35;99012.64;114503;1206;103105;-76
2021/04/15 00:54:41;;;;;;;26.55;13.65;;;;;;;1.11;71.91;99014.35;114525;1206;103170;-74
2021/04/15 00:57:31;;;;;;;21.90;11.65;;;;;;;1.10;71.96;99006.56;114536;1206;103146;-74
2021/04/15 01:00:00;;;;;;;23.50;12.40;;;;;;;1.04;71.79;99005.86;114491;1206;103079;-75
2021/04/15 01:02:33;;;;;;;23.55;13.50;;;;;;;1.04;71.99;99007.61;114551;1206;103152;-75
2021/04/15 01:05:21;;;;;;;23.00;12.20;;;;;;;1.06;72.31;99010.19;114542;1206;103152;-74
2021/04/15 01:07:52;;;;;;;21.55;10.85;;;;;;;1.04;72.35;99010.23;114502;1206;103063;-74
2021/04/15 01:10:23;;;;;;;23.30;12.05;;;;;;;0.98;72.22;99003.45;114516;1206;103059;-74
2021/04/15 01:13:13;;;;;;;22.50;11.30;;;;;;;0.97;72.15;99009.59;114527;1206;103219;-74
2021/04/15 01:16:03;;;;;;;25.40;13.05;;;;;;;0.98;72.36;98998.21;114560;1206;103053;-74
2021/04/15 01:19:04;;;;;;;23.60;12.50;;;;;;;0.99;72.25;99007.78;114528;1206;103047;-74
2021/04/15 01:21:31;;;;;;;23.30;12.20;;;;;;;0.94;71.70;99001.84;114476;1206;103088;-74
2021/04/15 01:24:04;;;;;;;23.50;11.80;;;;;;;0.91;72.34;99004.56;114331;1206;103076;-74
2021/04/15 01:26:53;;;;;;;23.20;12.50;;;;;;;0.91;71.99;98996.70;114507;1206;103098;-75
2021/04/15 01:29:38;;;;;;;23.60;12.60;;;;;;;0.91;72.41;98996.70;114531;1206;103052;-74
2021/04/15 01:32:29;;;;;;;22.95;12.10;;;;;;;0.93;72.15;99002.75;114519;1206;104611;-72
2021/04/15 01:35:09;;;;;;;24.50;12.60;;;;;;;0.93;72.45;98994.05;114505;1206;103094;-75
2021/04/15 01:37:46;;;;;;;23.60;11.95;;;;;;;0.93;72.47;98989.66;114526;1206;103059;-78
2021/04/15 01:40:18;;;;;;;25.13;12.60;;;;;;;0.95;72.12;99003.55;114536;1206;103117;-76
2021/04/15 01:43:05;;;;;;;23.70;11.60;;;;;;;0.97;72.38;98993.05;114532;1206;103085;-76
2021/04/15 01:45:35;;;;;;;22.70;11.20;;;;;;;0.97;72.55;98985.19;114548;1206;103114;-75
2021/04/15 01:48:15;;;;;;;24.80;12.70;;;;;;;0.97;72.50;98991.27;114491;1206;103084;-76
2021/04/15 01:50:56;;;;;;;21.10;10.80;;;;;;;0.99;72.34;98992.06;114538;1206;103114;-76
2021/04/15 01:53:40;;;;;;;22.60;11.60;;;;;;;0.99;72.24;98980.75;114518;1206;103152;-76
2021/04/15 01:56:10;;;;;;;;;;;;;;;0.97;72.51;98980.78;114564;1213;103165;-75
2021/04/15 01:58:44;;;;;;;22.17;10.77;;;;;;;0.97;72.55;98979.95;114507;1206;103139;-74
2021/04/15 02:01:23;;;;;;;20.40;10.40;;;;;;;0.97;72.24;98980.78;114507;1205;103081;-76
2021/04/15 02:03:55;;;;;;;18.90;9.35;;;;;;;0.96;72.33;98983.47;114373;1206;103517;-74
2021/04/15 02:06:28;;;;;;;18.83;8.83;;;;;;;0.93;72.54;98979.17;114456;1206;103095;-75
2021/04/15 02:09:00;;;;;;;;;;;;;;;0.93;72.82;98973.10;114439;1214;103194;-75
2021/04/15 02:11:42;;;;;;;17.60;7.70;;;;;;;0.93;72.31;98978.34;114405;1206;103079;-74
2021/04/15 02:14:15;;;;;;;19.55;9.50;;;;;;;0.92;72.63;98979.25;114533;1206;103603;-73
2021/04/15 02:16:45;;;;;;;20.40;10.10;;;;;;;0.92;72.70;98977.47;114434;1206;103149;-73
2021/04/15 02:19:25;;;;;;;21.53;10.33;;;;;;;0.95;72.64;98974.74;114512;1206;103142;-76
2021/04/15 02:22:14;;;;;;;21.60;11.70;;;;;;;0.96;72.44;98973.84;114513;1206;103056;-77
2021/04/15 02:25:04;;;;;;;19.35;10.00;;;;;;;0.96;72.42;98978.23;114530;1205;103233;-75
2021/04/15 02:27:43;;;;;;;20.00;9.10;;;;;;;0.94;72.23;98978.27;114421;1206;103513;-75
2021/04/15 02:30:31;;;;;;;20.40;9.90;;;;;;;0.89;72.55;98978.44;114540;1206;103152;-75
2021/04/15 02:33:24;;;;;;;20.25;9.70;;;;;;;0.88;72.30;98978.48;114494;1206;103166;-73
2021/04/15 02:36:01;;;;;;;17.00;8.10;;;;;;;0.85;72.84;98971.59;114545;1206;103188;-73
2021/04/15 02:38:46;;;;;;;16.90;8.00;;;;;;;0.88;72.29;98968.88;114534;1206;103091;-72
2021/04/15 02:41:19;;;;;;;20.30;9.65;;;;;;;0.85;72.85;98976.84;114505;1206;103053;-74
2021/04/15 02:43:52;;;;;;;;;;;;;;;0.87;72.84;98972.41;114543;1214;103194;-74
2021/04/15 02:46:31;;;;;;;19.25;9.50;;;;;;;0.88;72.34;98981.09;114518;1206;103153;-74
2021/04/15 02:49:05;;;;;;;18.40;9.40;;;;;;;0.86;72.73;98981.16;114547;1205;103204;-74
2021/04/15 02:51:49;;;;;;;18.13;8.93;;;;;;;0.83;72.52;98973.41;114531;1206;103157;-73
2021/04/15 02:54:19;;;;;;;;;;;;;;;0.83;72.75;98973.41;114529;1214;103150;-74
2021/04/15 02:57:00;;;;;;;18.40;9.05;;;;;;;0.84;72.55;98979.48;114542;1206;103127;-73
2021/04/15 02:59:51;;;;;;;19.00;9.20;;;;;;;0.85;72.80;98975.96;114541;1206;103203;-73
2021/04/15 03:02:27;;;;;;;20.50;9.40;;;;;;;0.86;72.85;98969.81;114535;1206;103101;-73
2021/04/15 03:05:04;;;;;;;19.60;9.10;;;;;;;0.85;72.67;98966.36;114547;1206;103079;-73
2021/04/15 03:07:40;;;;;;;20.25;10.35;;;;;;;0.88;72.96;98965.38;114503;1206;103153;-74
2021/04/15 03:10:22;;;;;;;16.50;8.20;;;;;;;0.91;72.60;98964.44;114535;1206;103098;-73
2021/04/15 03:13:03;;;;;;;18.20;8.80;;;;;;;0.88;72.52;98966.26;114505;1206;103157;-75
2021/04/15 03:15:41;;;;;;;17.80;9.00;;;;;;;0.87;72.79;98968.91;114537;1206;103075;-74
2021/04/15 03:18:21;;;;;;;20.40;10.15;;;;;;;0.88;72.55;98968.00;114516;1206;103297;-74
2021/04/15 03:21:05;;;;;;;19.50;9.90;;;;;;;0.88;72.88;98970.63;114496;1206;103059;-73
2021/04/15 03:23:47;;;;;;;19.15;9.25;;;;;;;0.86;72.32;98969.81;114530;1206;103316;-75
2021/04/15 03:26:31;;;;;;;20.35;9.40;;;;;;;0.86;73.07;98970.69;114536;1205;103099;-77
2021/04/15 03:29:19;;;;;;;19.05;9.05;;;;;;;0.88;72.53;98974.11;114532;1206;103082;-75
2021/04/15 03:32:09;;;;;;;19.20;8.90;;;;;;;0.88;72.72;98968.88;114546;1206;103071;-74
2021/04/15 03:35:03;;;;;;;20.03;9.93;;;;;;;0.86;72.53;98967.20;114497;1206;103051;-74
2021/04/15 03:37:45;;;;;;;16.85;8.10;;;;;;;0.90;72.49;98971.42;114529;1206;103197;-74
2021/04/15 03:40:18;;;;;;;17.70;9.00;;;;;;;0.92;72.87;98968.77;114509;1206;103082;-76
2021/04/15 03:42:56;;;;;;;18.70;8.95;;;;;;;0.92;72.61;98966.98;114436;1206;103158;-76
2021/04/15 03:45:58;;;;;;;19.85;9.65;;;;;;;0.92;73.00;98974.01;114321;1206;103299;-76
2021/04/15 03:48:39;;;;;;;19.45;9.35;;;;;;;0.93;72.71;98973.10;114056;1206;103152;-76
2021/04/15 03:51:19;;;;;;;18.70;9.00;;;;;;;0.93;72.94;98968.70;114491;1205;103402;-75
2021/04/15 03:54:03;;;;;;;17.45;8.50;;;;;;;0.93;72.71;98973.94;114218;1206;103085;-74
2021/04/15 03:56:45;;;;;;;19.20;9.55;;;;;;;0.91;72.64;98978.38;114323;1206;103268;-74
2021/04/15 03:59:29;;;;;;;20.05;9.90;;;;;;;0.93;73.17;98973.10;114504;1206;103249;-74
2021/04/15 04:02:03;;;;;;;17.90;8.90;;;;;;;0.94;72.39;98974.81;114451;1206;103044;-73
2021/04/15 04:04:39;;;;;;;20.05;10.60;;;;;;;0.96;73.04;98975.61;114519;1206;103188;-74
2021/04/15 04:07:23;;;;;;;17.53;8.90;;;;;;;0.94;73.02;98974.81;114458;1206;103088;-73
2021/04/15 04:10:02;;;;;;;15.90;7.10;;;;;;;0.94;72.43;98974.81;114540;1206;103184;-74
2021/04/15 04:12:42;;;;;;;17.30;8.40;;;;;;;0.91;72.50;98983.61;114520;1205;103085;-74
2021/04/15 04:15:17;;;;;;;18.20;9.60;;;;;;;0.89;73.07;98982.81;114456;1206;103076;-72
2021/04/15 04:18:02;;;;;;;17.95;9.10;;;;;;;0.93;72.76;98988.81;114376;1206;103153;-71
2021/04/15 04:20:35;;;;;;;18.80;8.30;;;;;;;0.92;73.04;98987.11;114432;1206;103539;-73
2021/04/15 04:23:27;;;;;;;18.00;8.30;;;;;;;0.91;72.93;98988.84;114512;1206;103158;-74
2021/04/15 04:26:11;;;;;;;19.00;9.30;;;;;;;0.95;72.98;98985.22;114491;1206;103984;-73
2021/04/15 04:28:51;;;;;;;19.60;9.55;;;;;;;0.97;72.97;98986.02;114395;1206;103155;-75
2021/04/15 04:31:26;;;;;;;19.50;9.15;;;;;;;1.00;72.96;98987.70;114428;1206;103754;-77
2021/04/15 04:33:57;;;;;;;17.40;8.30;;;;;;;1.02;73.08;98989.34;114428;1206;103067;-77
2021/04/15 04:36:26;;;;;;;20.70;9.80;;;;;;;1.03;72.68;98992.80;114463;1206;103165;-74
2021/04/15 04:38:57;;;;;;;16.45;8.00;;;;;;;1.04;73.19;98990.14;114491;1206;103176;-72
2021/04/15 04:41:32;;;;;;;19.50;9.50;;;;;;;1.05;73.24;98988.37;114475;1206;103092;-73
2021/04/15 04:44:13;;;;;;;15.60;7.20;;;;;;;1.07;72.96;98993.56;114443;1205;103213;-72
2021/04/15 04:46:47;;;;;;;18.40;8.80;;;;;;;1.09;72.88;99000.45;114458;1206;103044;-73
2021/04/15 04:49:30;;;;;;;22.20;9.95;;;;;;;1.12;72.59;98995.11;114516;1206;103131;-73
2021/04/15 04:52:29;;;;;;;18.10;8.65;;;;;;;1.12;73.02;99002.13;114465;1206;103200;-73
2021/04/15 04:54:59;;;;;;;20.80;10.35;;;;;;;1.08;72.89;99006.59;114458;1206;103152;-73
2021/04/15 04:57:33;;;;;;;20.30;9.60;;;;;;;1.09;72.81;99002.23;114467;1206;103544;-73
2021/04/15 05:00:07;;;;;;;;;;;;;;;1.11;73.15;99000.41;114420;1213;103090;-74
2021/04/15 05:02:34;;;;;;;19.50;9.20;;;;;;;1.10;72.76;99002.16;114483;1206;103085;-72
2021/04/15 05:05:21;;;;;;;20.50;9.65;;;;;;;1.08;72.92;98995.28;114469;1206;103060;-75
2021/04/15 05:07:58;;;;;;;23.20;11.90;;;;;;;1.09;72.82;99000.45;114455;1205;103056;-75
2021/04/15 05:10:30;;;;;;;21.90;10.70;;;;;;;1.11;73.28;98998.63;114455;1206;103220;-75
2021/04/15 05:13:15;;;;;;;21.40;11.00;;;;;;;1.13;72.99;98998.59;114444;1206;103098;-73
2021/04/15 05:15:44;;;;;;;25.90;12.57;;;;;;;1.11;72.98;98998.63;114333;1205;103545;-73
2021/04/15 05:18:15;;;;;;;21.90;11.90;;;;;;;1.12;72.93;98997.73;114486;1206;103148;-75
2021/04/15 05:20:45;;;;;;;20.00;10.35;;;;;;;1.13;72.94;98998.59;114458;1206;103050;-73
2021/04/15 05:23:44;;;;;;;19.13;9.17;;;;;;;1.10;73.17;98996.92;114504;1206;103120;-78
2021/04/15 05:26:29;;;;;;;20.80;9.70;;;;;;;1.10;73.00;98998.70;114468;1206;103072;-74
2021/04/15 05:29:02;;;;;;;20.30;9.90;;;;;;;1.09;72.90;98996.99;114453;1206;103054;-75
2021/04/15 05:31:40;;;;;;;18.10;8.90;;;;;;;1.12;73.26;98995.11;114490;1206;103092;-75
2021/04/15 05:34:21;;;;;;;23.10;10.80;;;;;;;1.15;72.99;98999.40;114443;1206;103079;-75
2021/04/15 05:37:01;;;;;;;20.10;10.30;;;;;;;1.18;73.02;99007.16;114524;1206;103117;-74
2021/04/15 05:39:31;;;;;;;19.40;9.40;;;;;;;1.20;72.93;99002.72;114455;1205;103181;-74
2021/04/15 05:42:11;;;;;;;21.37;10.93;;;;;;;1.22;72.92;99011.38;114463;1206;103129;-73
2021/04/15 05:45:02;;;;;;;21.10;10.10;;;;;;;1.25;73.23;99019.10;114454;1206;103193;-72
2021/04/15 05:48:02;;;;;;;19.67;8.90;;;;;;;1.25;73.21;99015.64;114462;1206;103210;-76
2021/04/15 05:50:43;;;;;;;18.80;9.00;;;;;;;1.23;72.84;99013.06;114315;1206;103223;-73
2021/04/15 05:53:34;;;;;;;21.00;10.70;;;;;;;1.26;73.22;99020.81;114468;1206;103124;-74
2021/04/15 05:56:12;;;;;;;20.30;10.35;;;;;;;1.28;72.98;99013.76;114260;1206;103158;-74
2021/04/15 05:59:20;;;;;;;20.80;10.67;;;;;;;1.31;72.96;99012.81;113979;1206;102938;-76
2021/04/15 06:01:54;;;;;;;19.90;9.30;;;;;;;1.35;73.18;99014.41;114098;1206;103063;-76
2021/04/15 06:04:32;;;;;;;19.55;9.00;;;;;;;1.37;72.75;99009.11;115493;1205;101344;-72
2021/04/15 06:07:06;;;;;;;20.35;9.60;;;;;;;1.40;73.06;99011.62;114351;1205;103059;-79
2021/04/15 06:09:33;;;;;;;21.25;10.90;;;;;;;1.44;73.14;99005.36;114460;1206;103215;-78
2021/04/15 06:12:09;;;;;;;25.60;10.80;;;;;;;1.49;73.02;99006.89;114224;1206;103179;-76
2021/04/15 06:15:19;;;;;;;17.40;7.80;;;;;;;1.51;73.13;98998.98;114586;1206;103127;-74
2021/04/15 06:18:13;;;;;;;20.90;9.30;;;;;;;1.52;72.79;99000.70;114439;1206;103150;-75
2021/04/15 06:20:46;;;;;;;21.10;10.55;;;;;;;1.52;73.24;99008.56;114440;1206;103062;-73
2021/04/15 06:23:36;;;;;;;;;;;;;;;1.55;73.27;99007.58;114474;1214;103149;-74
2021/04/15 06:26:08;;;;;;;19.85;9.10;;;;;;;1.56;73.13;99004.05;114441;1206;103086;-75
2021/04/15 06:28:43;;;;;;;19.00;9.00;;;;;;;1.59;73.24;98999.56;114418;1206;103162;-74
2021/04/15 06:31:17;;;;;;;19.10;9.90;;;;;;;1.65;73.23;99001.09;114451;1206;103089;-74
2021/04/15 06:33:45;;;;;;;18.37;9.20;;;;;;;1.67;73.07;98998.39;114450;1206;103089;-72
2021/04/15 06:36:35;;;;;;;19.80;10.00;;;;;;;1.67;73.11;98994.02;114447;1206;103091;-73
2021/04/15 06:39:28;;;;;;;19.80;9.50;;;;;;;1.70;73.12;98991.29;114405;1206;103104;-74
2021/04/15 06:42:17;;;;;;;19.80;9.15;;;;;;;1.71;73.14;98990.38;114381;1206;103049;-72
2021/04/15 06:45:15;;;;;;;19.80;9.50;;;;;;;1.73;73.20;98990.30;114392;1206;103153;-72
2021/04/15 06:48:15;;;;;;;21.65;9.90;;;;;;;1.76;73.23;98995.44;114446;1206;103166;-73
2021/04/15 06:51:02;;;;;;;20.00;9.30;;;;;;;1.78;73.06;98997.11;114476;1206;103098;-72
2021/04/15 06:53:43;;;;;;;18.55;8.25;;;;;;;1.82;73.13;98999.61;114375;1204;103286;-73
2021/04/15 06:56:44;;;;;;;18.80;9.30;;;;;;;1.85;73.34;98999.47;114391;1206;103063;-72
2021/04/15 06:59:48;;;;;;;20.70;9.80;;;;;;;1.87;73.15;98995.89;114389;1206;103108;-71
2021/04/15 07:02:54;;;;;;;18.80;9.20;;;;;;;1.83;72.95;98996.08;114408;1206;103091;-72
2021/04/15 07:05:31;;;;;;;20.10;9.30;;;;;;;1.84;73.10;99003.00;114436;1206;103084;-73
2021/04/15 07:08:05;;;;;;;19.90;8.70;;;;;;;1.86;73.14;98999.42;114382;1206;103222;-71
2021/04/15 07:10:46;;;;;;;18.55;8.30;;;;;;;1.88;73.08;99008.09;114410;1206;103101;-72
2021/04/15 07:13:41;;;;;;;19.95;8.55;;;;;;;1.89;73.34;99006.31;114403;1206;103162;-71
2021/04/15 07:16:14;;;;;;;20.85;10.45;;;;;;;1.87;73.20;99011.63;114461;1206;103098;-72
2021/04/15 07:19:03;;;;;;;21.00;10.60;;;;;;;1.90;73.15;99010.64;114472;1206;103140;-83
2021/04/15 07:21:33;;;;;;;20.50;10.75;;;;;;;1.94;73.16;99020.11;114368;1206;103194;-72
2021/04/15 07:24:31;;;;;;;19.97;9.73;;;;;;;1.98;73.02;99016.45;114386;1205;103168;-72
2021/04/15 07:27:35;;;;;;;21.10;10.35;;;;;;;2.00;73.48;99012.01;114420;1205;103315;-74
2021/04/15 07:30:23;;;;;;;22.70;11.30;;;;;;;2.02;73.13;99020.68;114346;1206;103136;-74
2021/04/15 07:33:02;;;;;;;22.80;11.27;;;;;;;2.06;73.03;99019.65;114462;1206;103161;-73
2021/04/15 07:36:08;;;;;;;21.70;10.90;;;;;;;2.11;73.20;99013.38;114385;1206;103179;-73
2021/04/15 07:38:53;;;;;;;20.40;10.15;;;;;;;2.12;73.32;99020.33;114364;1206;103280;-73
2021/04/15 07:41:27;;;;;;;20.60;10.45;;;;;;;2.12;73.39;99022.95;114428;1206;103152;-74
2021/04/15 07:44:13;;;;;;;22.10;11.50;;;;;;;2.13;73.29;99029.91;114400;1206;103131;-73
2021/04/15 07:46:40;;;;;;;19.05;9.05;;;;;;;2.17;73.11;99024.47;114455;1205;103206;-79
2021/04/15 07:49:53;;;;;;;20.15;10.75;;;;;;;2.15;72.80;99035.95;114422;1205;103335;-75
2021/04/15 07:52:54;;;;;;;22.70;12.20;;;;;;;2.16;73.31;99041.13;114357;1206;103204;-77
2021/04/15 07:55:45;;;;;;;20.60;10.30;;;;;;;2.17;73.08;99034.13;114406;1206;102925;-77
2021/04/15 07:58:49;;;;;;;22.90;12.10;;;;;;;2.19;73.22;99027.05;114409;1207;103544;-73
2021/04/15 08:01:24;;;;;;;22.70;12.50;;;;;;;2.25;73.14;99023.33;114476;1206;103150;-81
2021/04/15 08:03:54;;;;;;;22.00;11.35;;;;;;;2.27;72.97;99029.38;114432;1206;103123;-74
2021/04/15 08:06:58;;;;;;;25.00;11.73;;;;;;;2.29;73.23;99023.13;114390;1206;103460;-73
2021/04/15 08:10:02;;;;;;;22.30;12.20;;;;;;;2.33;73.27;99027.34;114383;1206;103140;-73
2021/04/15 08:12:50;;;;;;;19.90;9.90;;;;;;;2.33;72.89;99029.97;114422;1206;103159;-76
2021/04/15 08:16:10;;;;;;;19.77;10.10;;;;;;;2.34;72.99;99031.68;114454;1206;103174;-71
2021/04/15 08:18:58;;;;;;;20.25;10.80;;;;;;;2.33;72.89;99037.01;114434;1206;103181;-73
2021/04/15 08:21:41;;;;;;;21.25;9.75;;;;;;;2.34;72.80;99036.93;114368;1206;103049;-73
2021/04/15 08:25:03;;;;;;;22.00;8.70;;;;;;;2.36;73.24;99037.73;114435;1206;103134;-81
2021/04/15 08:27:43;;;;;;;21.47;10.77;;;;;;;2.30;72.93;99031.88;113903;1208;103328;-73
2021/04/15 08:30:31;;;;;;;;;;;;;;;2.33;73.54;99031.76;114402;1206;103223;-69
2021/04/15 08:33:26;;;;;;;25.25;12.15;;;;;;;2.55;73.55;99028.26;114460;1206;103306;-68
2021/04/15 08:36:33;;;;;;;23.03;12.27;;;;;;;2.78;73.66;99035.20;114461;1205;103082;-70
2021/04/15 08:39:27;;;;;;;23.80;12.80;;;;;;;2.79;73.69;99029.03;114434;1206;103094;-71
2021/04/15 08:42:11;;;;;;;;;;;;;;;2.77;73.24;99036.98;114360;1213;103147;-71
2021/04/15 08:45:06;;;;;;;22.85;10.75;;;;;;;2.73;73.26;99035.41;114433;1206;103152;-71
2021/04/15 08:48:00;;;;;;;24.55;12.00;;;;;;;2.69;73.40;99036.44;114438;1206;103156;-72
2021/04/15 08:50:57;;;;;;;23.30;13.20;;;;;;;2.60;72.76;99035.05;115585;1206;100969;-70
2021/04/15 08:53:50;;;;;;;20.25;10.15;;;;;;;2.61;73.41;99033.27;114424;1206;103197;-72
2021/04/15 08:56:26;;;;;;;22.33;11.53;;;;;;;2.63;73.16;99039.31;114343;1206;103105;-71
2021/04/15 08:59:33;;;;;;;24.30;12.50;;;;;;;2.60;73.12;99026.30;114418;1206;103152;-71
2021/04/15 09:02:02;;;;;;;22.40;11.50;;;;;;;2.59;73.30;99038.59;114412;1206;103191;-72
2021/04/15 09:04:58;;;;;;;23.25;12.90;;;;;;;2.61;73.03;99038.52;114380;1206;103059;-71
2021/04/15 09:07:51;;;;;;;22.40;12.50;;;;;;;2.60;73.21;99039.44;114471;1206;103152;-71
2021/04/15 09:10:53;;;;;;;21.40;9.57;;;;;;;2.61;72.94;99038.52;114346;1206;103034;-73
2021/04/15 09:13:29;;;;;;;22.70;12.10;;;;;;;2.60;73.37;99040.31;114322;1206;103185;-71
2021/04/15 09:16:18;;;;;;;22.40;11.05;;;;;;;2.63;73.69;99040.19;114379;1206;103169;-72
2021/04/15 09:18:55;;;;;;;23.75;13.35;;;;;;;2.60;73.47;99045.56;114299;1206;103140;-73
2021/04/15 09:22:10;;;;;;;24.40;13.70;;;;;;;2.62;73.43;99051.61;114012;1206;103513;-73
2021/04/15 09:24:54;;;;;;;25.00;13.20;;;;;;;2.62;73.20;99046.35;114353;1206;103056;-72
2021/04/15 09:27:39;;;;;;;;;;;;;;;2.63;73.36;99042.81;114429;1213;103062;-72
2021/04/15 09:30:27;;;;;;;23.85;13.60;;;;;;;2.68;73.21;99042.61;114400;1206;103143;-72
2021/04/15 09:33:10;;;;;;;24.35;13.50;;;;;;;2.72;73.25;99043.33;114381;1206;103148;-73
2021/04/15 09:36:17;;;;;;;24.45;14.05;;;;;;;2.73;73.51;99039.78;114418;1206;103082;-73
2021/04/15 09:38:56;;;;;;;25.20;14.30;;;;;;;2.78;73.54;99045.70;114346;1205;103143;-73
2021/04/15 09:41:58;;;;;;;22.40;12.65;;;;;;;2.79;73.04;99050.05;114385;1206;103050;-72
2021/04/15 09:44:41;;;;;;;24.90;13.30;;;;;;;2.75;73.46;99051.95;114355;1206;103175;-71
2021/04/15 09:47:35;;;;;;;23.30;11.70;;;;;;;2.73;73.13;99050.29;114065;1206;103095;-71
2021/04/15 09:50:43;;;;;;;22.15;12.30;;;;;;;2.68;73.02;99046.08;114777;1206;103168;-72
2021/04/15 09:53:53;;;;;;;27.15;15.00;;;;;;;2.68;73.25;99053.12;114235;1206;103676;-72
2021/04/15 09:56:41;;;;;;;27.90;14.15;;;;;;;2.70;73.31;99045.16;114111;1206;103117;-72
2021/04/15 09:59:26;;;;;;;33.40;13.40;;;;;;;2.71;73.25;99049.50;114348;1206;103056;-72
2021/04/15 10:02:08;;;;;;;24.20;12.63;;;;;;;2.73;72.96;99051.16;114303;1206;103099;-71
2021/04/15 10:04:54;;;;;;;24.95;14.20;;;;;;;2.71;72.93;99044.24;114337;1206;103273;-71
2021/04/15 10:07:32;;;;;;;22.85;11.50;;;;;;;2.73;73.01;99047.66;114334;1206;103136;-72
2021/04/15 10:10:10;;;;;;;25.60;13.40;;;;;;;2.71;73.46;99050.37;114320;1206;103047;-73
2021/04/15 10:13:20;;;;;;;26.20;15.00;;;;;;;2.74;73.44;99052.00;114371;1206;103044;-72
2021/04/15 10:16:21;;;;;;;26.70;14.20;;;;;;;2.74;72.87;99050.25;114276;1206;103229;-71
2021/04/15 10:19:07;;;;;;;23.95;13.00;;;;;;;2.75;73.25;99051.09;114442;1206;103131;-72
2021/04/15 10:21:50;;;;;;;21.47;12.00;;;;;;;2.79;73.26;99053.55;114382;1206;103567;-71
2021/04/15 10:24:17;;;;;;;23.50;13.47;;;;;;;2.83;73.39;99057.76;114384;1205;103098;-71
2021/04/15 10:26:58;;;;;;;22.00;12.28;;;;;;;2.88;73.29;99048.80;114396;1206;103159;-71
2021/04/15 10:29:43;;;;;;;23.00;12.70;;;;;;;2.86;73.23;99055.89;114373;1206;103201;-72
2021/04/15 10:32:29;;;;;;;23.65;12.25;;;;;;;2.86;73.62;99055.89;114399;1206;103127;-70
2021/04/15 10:35:17;;;;;;;22.80;11.60;;;;;;;2.87;73.36;99054.97;114389;1206;103152;-73
2021/04/15 10:37:45;;;;;;;23.77;12.10;;;;;;;2.86;73.59;99054.13;114426;1206;103226;-77
2021/04/15 10:40:38;;;;;;;24.10;11.38;;;;;;;2.88;73.26;99052.30;114437;1206;103165;-75
2021/04/15 10:43:05;;;;;;;22.50;12.30;;;;;;;2.93;73.23;99057.35;114404;1206;103162;-73
2021/04/15 10:46:03;;;;;;;21.40;11.10;;;;;;;2.95;73.30;99061.64;115394;1206;103163;-72
2021/04/15 10:48:56;;;;;;;20.00;10.25;;;;;;;2.96;73.08;99062.48;114376;1206;103573;-72
2021/04/15 10:51:35;;;;;;;21.80;10.95;;;;;;;2.93;73.38;99067.86;114398;1206;103050;-71
2021/04/15 10:54:24;;;;;;;21.30;11.30;;;;;;;2.93;73.23;99065.23;114460;1206;103220;-71
2021/04/15 10:57:02;;;;;;;19.33;10.60;;;;;;;2.94;73.22;99064.31;114458;1205;103059;-73
2021/04/15 10:59:38;;;;;;;22.00;11.50;;;;;;;2.95;73.25;99066.03;114442;1206;103554;-71
2021/04/15 11:02:08;;;;;;;20.73;10.60;;;;;;;2.95;72.76;99061.64;114409;1205;103171;-70
2021/04/15 11:04:35;;;;;;;20.60;11.10;;;;;;;2.98;73.56;99064.14;114401;1206;103156;-71
2021/04/15 11:07:10;;;;;;;21.20;10.80;;;;;;;2.99;72.78;99051.84;114432;1206;103188;-70
2021/04/15 11:09:40;;;;;;;23.70;12.75;;;;;;;2.98;73.18;99060.65;114466;1206;103507;-71
2021/04/15 11:12:13;;;;;;;23.00;11.70;;;;;;;3.02;73.29;99066.65;114470;1206;103051;-74
2021/04/15 11:14:43;;;;;;;19.63;9.47;;;;;;;3.08;73.19;99056.72;114458;1206;103079;-71
2021/04/15 11:17:29;;;;;;;22.00;10.87;;;;;;;3.11;73.54;99059.23;114403;1205;103104;-72
2021/04/15 11:20:14;;;;;;;18.97;9.40;;;;;;;3.12;73.34;99054.80;114467;1206;103188;-71
2021/04/15 11:23:01;;;;;;;21.17;9.53;;;;;;;3.16;73.20;99058.17;114423;1206;103150;-72
2021/04/15 11:25:40;;;;;;;20.85;11.55;;;;;;;3.16;73.05;99063.44;114452;1206;103092;-72
2021/04/15 11:28:33;;;;;;;19.30;9.15;;;;;;;3.21;73.65;99050.95;114370;1206;103172;-73
2021/04/15 11:31:11;;;;;;;20.20;10.90;;;;;;;3.16;73.11;99059.02;114462;1205;103169;-72
2021/04/15 11:33:54;;;;;;;22.30;10.80;;;;;;;3.22;73.25;99064.02;114449;1206;103053;-74
2021/04/15 11:36:22;;;;;;;20.05;9.50;;;;;;;3.26;73.15;99062.97;114430;1205;103047;-73
2021/04/15 11:39:11;;;;;;;20.10;10.20;;;;;;;3.27;73.16;99061.18;114429;1206;103078;-73
2021/04/15 11:41:53;;;;;;;20.27;9.80;;;;;;;3.28;73.23;99063.77;114431;1206;103130;-72
2021/04/15 11:44:27;;;;;;;23.40;11.50;;;;;;;3.31;73.30;99059.30;114427;1206;103153;-71
2021/04/15 11:47:01;;;;;;;19.90;10.60;;;;;;;3.34;73.27;99061.80;114486;1206;103204;-72
2021/04/15 11:49:36;;;;;;;19.80;9.85;;;;;;;3.40;73.12;99058.91;114379;1206;103076;-73
2021/04/15 11:52:12;;;;;;;19.70;9.10;;;;;;;3.47;73.47;99059.48;114456;1206;103169;-72
2021/04/15 11:54:50;;;;;;;19.50;9.50;;;;;;;3.52;73.53;99054.88;114444;1206;103572;-70
2021/04/15 11:57:21;;;;;;;19.90;9.90;;;;;;;3.48;72.76;99054.14;114408;1206;103110;-72
2021/04/15 12:00:05;;;;;;;20.50;10.60;;;;;;;3.47;73.27;99056.85;114423;1205;103175;-71
2021/04/15 12:02:32;;;;;;;19.90;10.55;;;;;;;3.52;73.47;99054.88;114393;1206;103227;-70
2021/04/15 12:05:32;;;;;;;20.80;10.40;;;;;;;3.61;73.21;99049.22;114448;1206;103644;-71
2021/04/15 12:08:07;;;;;;;19.97;10.50;;;;;;;3.67;73.26;99053.34;114373;1206;103060;-72
2021/04/15 12:10:38;;;;;;;20.35;10.60;;;;;;;3.75;73.92;99045.09;114453;1206;103169;-73
2021/04/15 12:13:23;;;;;;;23.40;11.00;;;;;;;3.84;73.30;99042.05;114470;1206;103149;-70
2021/04/15 12:16:24;;;;;;;17.93;7.80;;;;;;;3.98;73.20;99050.19;114535;1206;103073;-76
2021/04/15 12:19:01;;;;;;;20.95;9.90;;;;;;;4.04;73.56;99053.46;114397;1206;103058;-73
2021/04/15 12:21:45;;;;;;;19.80;9.90;;;;;;;4.04;72.72;99051.66;114475;1206;103175;-73
2021/04/15 12:24:26;;;;;;;19.15;9.30;;;;;;;4.04;72.83;99053.46;114390;1206;103168;-75